Terminal Aerodrome Forecast
Issued by NWS

Home | Current Version | Previous Version | Graphics & Text | Print | Product List | Glossary On
Versions: 1 2 3 4 5 6 7 8 9 10 11 12
000
FTUS43 KICT 260544 CCA
TAFSLN
TAF COR
KSLN 260544Z 2606/2706 VRB05KT P6SM SCT250
     FM260700 32012KT P6SM SCT015 OVC250
     FM261000 35015G22KT P6SM SCT008 OVC015
     FM261800 03015G22KT P6SM BKN025 OVC040
     FM270200 33012KT P6SM OVC015=

USA.gov is the U.S. government's official web portal to all federal, state and local government web resources and services.